Terminal Aerodrome Forecast
Issued by NWS Charleston, WV

Current Version | Previous Version | Text Only | Print | Product List | Glossary Off
Versions: 1 2 3 4 5 6 7 8 9 10 11 12 13 14 15 16 17 18 19 20 21 22 23 24 25

000
FTUS41 KRLX 230800 AAA
TAFEKN
TAF AMD
KEKN 230848Z 2309/2406 VRB03KT 3/4SM BR SCT001
      TEMPO 2309/2312 3SM BR BKN040
     FM231200 23004KT 5SM HZ BKN030
     FM231400 24007KT 6SM HZ BKN030
     FM231700 24009KT P6SM VCTS BKN035CB
     FM232000 28011G17KT P6SM VCTS BKN035CB
     FM232200 28010G15KT 4SM TSRA BR BKN030CB
     FM232300 27008KT 4SM TSRA BR BKN025CB
     FM240100 30003KT 4SM SHRA BR BKN020
     FM240500 VRB03KT 4SM -SHRA BR OVC016=

USA.gov is the U.S. government's official web portal to all federal, state and local government web resources and services.